Time;durP1;ratioP1;P1;durP2;ratioP2;P2;SDS_P1;SDS_P2;PMS_P1;PMS_P2;Temp;Humidity;BMP_temperature;BMP_pressure;BME280_temperature;BME280_humidity;BME280_pressure;Samples;Min_cycle;Max_cycle;Signal;HPM_P1;HPM_P2
2022/05/24 00:00:24;;;;;;;23.17;20.30;;;14.90;99.90;;;;;;2619911;54;20418;-79
2022/05/24 00:07:09;;;;;;;25.70;19.60;;;14.80;99.90;;;;;;2618602;54;20435;-78
2022/05/24 00:09:35;;;;;;;31.13;18.97;;;14.90;99.90;;;;;;2619384;54;20403;-79
2022/05/24 00:15:28;;;;;;;33.83;20.17;;;14.90;99.90;;;;;;2619749;39;20550;-78
2022/05/24 00:21:16;;;;;;;29.77;21.57;;;15.00;99.90;;;;;;2618797;54;20427;-78
2022/05/24 00:27:05;;;;;;;33.50;22.93;;;14.90;99.90;;;;;;2619169;47;20396;-78
2022/05/24 00:32:52;;;;;;;28.37;22.30;;;14.90;99.90;;;;;;2619119;47;20400;-78
2022/05/24 00:38:41;;;;;;;27.70;22.20;;;14.90;99.90;;;;;;2618993;47;20499;-77
2022/05/24 00:55:34;;;;;;;22.57;19.60;;;15.00;99.90;;;;;;2617776;54;20403;-78
2022/05/24 01:01:43;;;;;;;25.37;20.10;;;14.90;99.90;;;;;;2618421;54;20398;-79
2022/05/24 01:07:50;;;;;;;25.70;20.40;;;14.80;99.90;;;;;;2617431;54;20953;-79
2022/05/24 01:13:59;;;;;;;26.97;20.20;;;14.70;99.90;;;;;;2617989;54;20931;-78
2022/05/24 01:20:06;;;;;;;23.87;20.73;;;14.60;99.90;;;;;;2617964;54;20410;-78
2022/05/24 01:36:51;;;;;;;23.97;19.60;;;14.50;99.90;;;;;;2617382;54;20371;-78
2022/05/24 01:42:38;;;;;;;30.30;21.00;;;14.60;99.90;;;;;;2617824;39;20817;-79
2022/05/24 01:59:01;;;;;;;25.73;20.97;;;14.70;99.90;;;;;;2616618;54;20399;-78
2022/05/24 02:05:07;;;;;;;25.27;20.00;;;14.60;99.90;;;;;;2616501;54;20386;-79
2022/05/24 02:11:17;;;;;;;28.90;20.90;;;14.70;99.90;;;;;;2617147;54;20397;-79
2022/05/24 02:14:17;;;;;;;28.13;19.90;;;14.70;99.90;;;;;;2617404;46;20383;-78
2022/05/24 02:20:06;;;;;;;27.37;19.13;;;14.60;99.90;;;;;;2617031;47;20483;-82
2022/05/24 02:25:56;;;;;;;27.87;19.67;;;14.70;99.90;;;;;;2617590;47;20492;-79
2022/05/24 02:31:45;;;;;;;23.87;19.97;;;14.80;99.90;;;;;;2618783;54;20403;-78
2022/05/24 02:37:35;;;;;;;33.43;22.27;;;14.60;99.90;;;;;;2618558;47;20505;-82
2022/05/24 02:43:42;;;;;;;23.07;19.80;;;14.80;99.90;;;;;;2619107;39;20789;-79
2022/05/24 02:49:30;;;;;;;27.97;21.83;;;14.70;99.90;;;;;;2618280;47;20155;-79
2022/05/24 02:55:19;;;;;;;28.03;21.40;;;14.60;99.90;;;;;;2617528;47;20270;-78
2022/05/24 03:15:13;;;;;;;23.00;17.40;;;14.40;99.90;;;;;;2617711;39;20866;-80
2022/05/24 03:17:39;;;;;;;17.40;14.80;;;14.40;99.90;;;;;;2617331;54;20396;-79
2022/05/24 03:20:06;;;;;;;21.10;15.90;;;14.40;99.90;;;;;;2617758;54;20379;-78
2022/05/24 03:25:54;;;;;;;15.00;12.10;;;14.30;99.90;;;;;;2616753;54;20391;-79
2022/05/24 03:35:22;;;;;;;12.70;10.00;;;14.10;99.90;;;;;;2618286;54;20390;-78
2022/05/24 03:41:29;;;;;;;12.03;8.50;;;14.00;99.90;;;;;;2618383;54;20512;-79
2022/05/24 03:47:37;;;;;;;8.67;6.93;;;13.90;99.90;;;;;;2619004;54;20185;-78
2022/05/24 03:53:44;;;;;;;12.10;7.13;;;13.80;99.90;;;;;;2619702;54;20419;-78
2022/05/24 03:59:52;;;;;;;9.40;7.27;;;13.80;99.90;;;;;;2619373;54;20146;-78
2022/05/24 04:05:58;;;;;;;10.60;6.90;;;13.80;99.90;;;;;;2618981;54;20403;-79
2022/05/24 04:12:43;;;;;;;10.00;7.73;;;13.70;99.90;;;;;;2619213;54;20675;-79
2022/05/24 04:15:09;;;;;;;7.83;6.20;;;13.70;99.90;;;;;;2618139;54;20934;-79
2022/05/24 04:20:58;;;;;;;8.00;6.87;;;13.70;99.90;;;;;;2618728;54;20408;-79
2022/05/24 04:26:47;;;;;;;9.10;6.70;;;13.80;99.90;;;;;;2618394;54;20145;-79
2022/05/24 04:32:34;;;;;;;8.50;6.37;;;13.90;99.90;;;;;;2617648;49;20406;-79
2022/05/24 04:38:23;;;;;;;10.47;6.73;;;14.00;99.90;;;;;;2617125;54;20721;-78
2022/05/24 04:44:30;;;;;;;11.47;8.40;;;14.00;99.90;;;;;;2618179;54;20407;-79
2022/05/24 04:50:17;;;;;;;8.40;6.73;;;14.20;99.90;;;;;;2617251;54;20247;-79
2022/05/24 05:06:54;;;;;;;8.43;6.43;;;14.00;99.90;;;;;;2619619;54;20398;-79
2022/05/24 05:13:05;;;;;;;11.73;6.40;;;13.90;99.90;;;;;;2617405;54;20546;-81
2022/05/24 05:40:54;;;;;;;16.83;6.17;;;13.40;99.90;;;;;;2617659;54;20407;-82
2022/05/24 05:47:01;;;;;;;8.70;5.17;;;13.30;99.90;;;;;;2618012;54;20453;-81
2022/05/24 05:53:08;;;;;;;7.70;4.73;;;13.30;99.90;;;;;;2617031;54;20972;-78
2022/05/24 05:59:14;;;;;;;6.70;5.50;;;13.10;99.90;;;;;;2616017;54;20157;-79
2022/05/24 06:05:21;;;;;;;6.73;4.80;;;13.00;99.90;;;;;;2620352;54;20154;-80
2022/05/24 06:22:20;;;;;;;7.23;4.97;;;12.80;99.90;;;;;;2618596;54;20383;-80
2022/05/24 06:28:26;;;;;;;9.30;4.50;;;12.70;99.90;;;;;;2617470;54;20167;-81
2022/05/24 06:34:32;;;;;;;5.20;4.50;;;12.60;99.90;;;;;;2616987;39;20814;-79
2022/05/24 06:40:39;;;;;;;17.73;4.30;;;12.60;99.90;;;;;;2616370;54;20261;-81
2022/05/24 06:46:46;;;;;;;7.30;3.13;;;12.50;99.90;;;;;;2616459;54;20418;-79
2022/05/24 06:52:57;;;;;;;8.80;4.80;;;12.40;99.90;;;;;;2616631;54;20439;-79
2022/05/24 07:05:29;;;;;;;6.00;3.80;;;12.40;99.90;;;;;;2617159;54;20418;-80
2022/05/24 07:16:15;;;;;;;7.17;4.90;;;12.60;99.90;;;;;;2619163;39;20823;-79
2022/05/24 07:22:21;;;;;;;5.47;3.50;;;12.80;99.90;;;;;;2618359;54;20395;-79
2022/05/24 07:28:27;;;;;;;4.77;3.47;;;12.90;99.90;;;;;;2618505;54;20173;-80
2022/05/24 07:34:35;;;;;;;5.47;3.40;;;12.60;99.90;;;;;;2618408;54;20170;-80
2022/05/24 07:47:09;;;;;;;4.67;3.53;;;13.30;99.90;;;;;;2618095;54;20406;-80
2022/05/24 07:53:16;;;;;;;5.00;2.67;;;14.00;99.90;;;;;;2621650;54;20468;-82
2022/05/24 07:59:24;;;;;;;5.07;2.80;;;14.70;99.90;;;;;;2621470;54;20158;-81
2022/05/24 08:05:33;;;;;;;4.20;3.77;;;15.70;99.90;;;;;;2621417;54;20410;-82
2022/05/24 08:40:29;;;;;;;4.53;2.47;;;16.80;99.90;;;;;;2616779;54;20412;-81
2022/05/24 08:56:33;;;;;;;3.10;2.43;;;16.90;99.90;;;;;;2616801;54;20395;-80
2022/05/24 09:02:45;;;;;;;3.60;3.17;;;18.30;99.90;;;;;;2616306;54;20508;-80
2022/05/24 09:19:49;;;;;;;5.40;3.67;;;15.30;99.90;;;;;;2616802;54;20402;-79
2022/05/24 09:40:51;;;;;;;5.40;3.07;;;15.40;99.90;;;;;;2616558;39;20869;-79
2022/05/24 09:46:58;;;;;;;6.03;3.33;;;15.40;99.90;;;;;;2616804;54;20407;-79
2022/05/24 09:56:30;;;;;;;3.43;3.00;;;15.30;99.90;;;;;;2616219;47;20399;-79
2022/05/24 10:17:34;;;;;;;2.30;2.10;;;15.60;99.90;;;;;;2616581;39;20848;-79
2022/05/24 10:30:19;;;;;;;2.50;2.30;;;18.20;79.20;;;;;;2615674;39;20777;-78
2022/05/24 10:40:43;;;;;;;4.57;2.60;;;18.80;59.20;;;;;;2616179;54;21007;-78
2022/05/24 11:26:51;;;;;;;2.70;1.80;;;17.80;25.60;;;;;;2614635;54;20562;-77
2022/05/24 11:33:05;;;;;;;15.50;2.87;;;17.60;22.70;;;;;;2615801;54;20522;-79
2022/05/24 11:53:38;;;;;;;4.33;2.37;;;19.40;17.80;;;;;;2616107;54;21027;-78
2022/05/24 11:59:46;;;;;;;2.47;2.27;;;19.20;17.00;;;;;;2616623;54;20998;-78
2022/05/24 12:20:34;;;;;;;2.73;2.43;;;19.40;15.70;;;;;;2617026;54;21016;-79
2022/05/24 12:30:30;;;;;;;2.70;2.50;;;19.10;15.40;;;;;;2617154;39;20882;-79
2022/05/24 12:36:41;;;;;;;8.53;2.33;;;18.00;15.10;;;;;;2615737;54;20418;-79
2022/05/24 12:46:09;;;;;;;5.23;2.30;;;17.50;17.80;;;;;;2615963;54;20968;-77
2022/05/24 12:52:18;;;;;;;2.60;2.40;;;18.30;13.60;;;;;;2617505;47;20149;-78
2022/05/24 12:58:12;;;;;;;3.77;2.63;;;17.90;16.30;;;;;;2617933;54;20408;-78
2022/05/24 13:15:02;;;;;;;4.53;2.77;;;18.80;16.10;;;;;;2616619;54;21053;-77
2022/05/24 13:21:14;;;;;;;3.43;3.13;;;19.20;13.30;;;;;;2616720;54;20412;-78
2022/05/24 13:24:15;;;;;;;2.00;1.90;;;19.20;11.10;;;;;;2616458;54;20412;-78
2022/05/24 13:36:29;;;;;;;2.73;2.00;;;20.60;5.70;;;;;;2616716;54;20404;-78
2022/05/24 13:42:17;;;;;;;2.00;1.90;;;20.60;1.00;;;;;;2617568;47;20553;-78
2022/05/24 13:48:26;;;;;;;2.37;2.20;;;19.70;3.40;;;;;;2617394;46;20166;-77
2022/05/24 13:54:33;;;;;;;2.83;2.53;;;19.10;4.80;;;;;;2616729;46;20397;-78
2022/05/24 14:00:34;;;;;;;9.53;2.70;;;18.90;5.20;;;;;;2616293;46;20413;-78
2022/05/24 14:06:25;;;;;;;3.50;2.30;;;18.50;7.30;;;;;;2616887;39;20794;-78
2022/05/24 14:12:13;;;;;;;2.67;2.47;;;16.50;18.30;;;;;;2616578;39;20804;-80
2022/05/24 14:18:03;;;;;;;4.23;3.17;;;15.20;91.30;;;;;;2617383;54;20142;-82
2022/05/24 14:20:30;;;;;;;3.87;3.67;;;14.50;99.90;;;;;;2618058;54;20415;-81
2022/05/24 14:22:56;;;;;;;4.60;3.30;;;14.30;99.90;;;;;;2617296;54;20514;-82
2022/05/24 14:28:43;;;;;;;10.57;3.07;;;15.30;99.90;;;;;;2617642;54;20404;-81
2022/05/24 14:34:31;;;;;;;2.90;2.80;;;16.60;99.90;;;;;;2616981;47;20143;-82
2022/05/24 14:40:19;;;;;;;2.50;2.40;;;17.70;68.20;;;;;;2617508;54;20543;-80
2022/05/24 14:46:06;;;;;;;2.70;1.70;;;18.50;39.60;;;;;;2616906;47;20142;-82
2022/05/24 14:52:00;;;;;;;2.43;1.87;;;18.20;27.30;;;;;;2617576;47;20152;-79
2022/05/24 14:57:48;;;;;;;2.90;2.20;;;18.00;23.70;;;;;;2618288;54;20389;-80
2022/05/24 15:03:36;;;;;;;3.27;2.70;;;17.50;26.80;;;;;;2618156;54;20286;-79
2022/05/24 15:16:09;;;;;;;2.80;2.30;;;17.90;27.60;;;;;;2618114;54;20425;-79
2022/05/24 15:32:30;;;;;;;3.80;2.40;;;17.00;31.60;;;;;;2618386;54;20562;-80
2022/05/24 15:38:37;;;;;;;3.87;2.73;;;17.10;32.10;;;;;;2618444;46;20402;-78
2022/05/24 15:44:43;;;;;;;4.07;2.90;;;17.20;29.30;;;;;;2620706;54;20164;-78
2022/05/24 15:50:50;;;;;;;2.30;1.80;;;16.90;38.40;;;;;;2617966;39;20550;-79
2022/05/24 15:56:57;;;;;;;2.47;2.27;;;17.50;30.00;;;;;;2618226;54;20179;-79
2022/05/24 16:03:04;;;;;;;2.50;1.90;;;17.40;25.30;;;;;;2617869;54;20176;-78
2022/05/24 16:15:36;;;;;;;4.00;2.00;;;18.30;22.10;;;;;;2619487;54;20398;-78
2022/05/24 16:25:24;;;;;;;2.97;2.57;;;18.30;20.80;;;;;;2618825;54;20441;-78
2022/05/24 16:31:32;;;;;;;2.47;2.27;;;18.70;16.80;;;;;;2618773;46;20221;-79
2022/05/24 16:37:39;;;;;;;2.60;2.40;;;18.70;14.80;;;;;;2619069;54;20399;-79
2022/05/24 16:43:48;;;;;;;2.13;2.03;;;19.80;10.50;;;;;;2618033;54;20437;-79
2022/05/24 16:49:55;;;;;;;3.10;2.07;;;19.40;11.00;;;;;;2618781;54;20425;-79
2022/05/24 17:02:28;;;;;;;2.40;2.23;;;19.30;10.60;;;;;;2617842;54;20438;-77
2022/05/24 17:08:36;;;;;;;2.43;2.23;;;19.70;8.30;;;;;;2618189;54;20148;-78
2022/05/24 17:14:43;;;;;;;2.97;2.63;;;19.20;10.00;;;;;;2617869;46;20441;-79
2022/05/24 17:31:38;;;;;;;2.90;2.70;;;17.50;19.30;;;;;;2616487;54;20445;-79
2022/05/24 17:37:44;;;;;;;3.43;2.30;;;17.20;20.40;;;;;;2616104;54;20444;-78
2022/05/24 17:43:52;;;;;;;2.07;1.97;;;;;;;;;;2616000;54;20414;-78
2022/05/24 17:49:59;;;;;;;3.30;2.40;;;16.80;26.70;;;;;;2616797;39;20988;-79
2022/05/24 17:56:05;;;;;;;2.60;2.40;;;16.90;28.60;;;;;;2617051;54;20950;-79
2022/05/24 18:02:12;;;;;;;3.40;3.20;;;16.90;29.50;;;;;;2616746;54;20168;-79
2022/05/24 18:08:19;;;;;;;3.00;2.03;;;16.80;30.20;;;;;;2616146;54;20403;-79
2022/05/24 18:14:25;;;;;;;3.80;2.30;;;16.50;31.90;;;;;;2616595;54;20406;-79
2022/05/24 18:20:33;;;;;;;2.47;2.27;;;16.40;33.90;;;;;;2616717;54;21013;-79
2022/05/24 18:36:56;;;;;;;3.30;2.30;;;16.10;30.30;;;;;;2617545;54;20400;-78
2022/05/24 18:43:04;;;;;;;2.10;2.00;;;16.00;30.70;;;;;;2617918;39;20819;-78
2022/05/24 18:49:12;;;;;;;2.10;1.90;;;15.80;31.00;;;;;;2616966;54;20407;-78
2022/05/24 18:55:19;;;;;;;7.97;2.47;;;15.70;32.50;;;;;;2617847;54;20411;-77
2022/05/24 19:01:26;;;;;;;2.13;1.87;;;15.80;31.70;;;;;;2617731;54;20411;-78
2022/05/24 19:07:34;;;;;;;2.23;1.87;;;15.50;34.50;;;;;;2617999;54;20153;-78
2022/05/24 19:13:41;;;;;;;2.47;2.13;;;15.30;37.90;;;;;;2618774;54;20438;-78
2022/05/24 19:19:49;;;;;;;2.33;2.10;;;;;;;;;;2618449;54;20170;-77
2022/05/24 19:50:35;;;;;;;3.43;2.10;;;;;;;;;;2616328;54;20404;-78
2022/05/24 19:56:41;;;;;;;2.30;2.10;;;14.50;60.70;;;;;;2615056;54;20414;-78
2022/05/24 20:02:47;;;;;;;2.40;2.20;;;;;;;;;;2616934;54;20145;-79
2022/05/24 20:08:53;;;;;;;2.90;2.13;;;14.30;77.80;;;;;;2616235;54;20482;-77
2022/05/24 20:14:42;;;;;;;1.93;1.83;;;14.30;77.20;;;;;;2617047;54;20298;-78
2022/05/24 20:20:49;;;;;;;3.23;2.23;;;14.10;89.90;;;;;;2617253;54;20948;-78
2022/05/24 20:30:37;;;;;;;2.20;2.00;;;14.00;99.90;;;;;;2616765;54;20387;-78
2022/05/24 20:36:44;;;;;;;4.93;2.50;;;14.00;99.90;;;;;;2617795;54;20153;-79
2022/05/24 20:42:51;;;;;;;1.80;1.70;;;14.00;99.90;;;;;;2617916;54;20411;-78
2022/05/24 20:48:58;;;;;;;2.23;1.90;;;13.80;99.90;;;;;;2617473;54;20181;-78
2022/05/24 20:55:07;;;;;;;2.43;2.23;;;13.70;99.90;;;;;;2617289;54;20410;-77
2022/05/24 21:01:14;;;;;;;3.20;2.47;;;13.70;99.90;;;;;;2617255;54;20402;-78
2022/05/24 21:07:22;;;;;;;2.33;2.13;;;13.60;99.90;;;;;;2616692;54;20403;-78
2022/05/24 21:13:31;;;;;;;2.50;2.30;;;13.40;99.90;;;;;;2617307;39;20680;-79
2022/05/24 21:19:38;;;;;;;2.57;2.37;;;13.30;99.90;;;;;;2618456;54;20439;-78
2022/05/24 21:36:36;;;;;;;5.17;2.07;;;13.30;99.90;;;;;;2615248;54;20404;-78
2022/05/24 21:42:42;;;;;;;2.53;2.33;;;13.20;99.90;;;;;;2615391;54;20154;-78
2022/05/24 21:48:48;;;;;;;2.20;2.00;;;12.90;99.90;;;;;;2615202;54;20261;-77
2022/05/24 21:54:55;;;;;;;2.20;2.00;;;13.10;99.90;;;;;;2615690;54;20436;-78
2022/05/24 22:01:05;;;;;;;2.00;1.90;;;13.00;99.90;;;;;;2616084;54;20146;-78
2022/05/24 22:07:12;;;;;;;1.77;1.67;;;12.90;99.90;;;;;;2616702;54;20389;-78
2022/05/24 22:13:21;;;;;;;1.90;1.80;;;12.90;99.90;;;;;;2617615;54;20511;-78
2022/05/24 22:19:28;;;;;;;2.23;2.03;;;12.90;99.90;;;;;;2617052;54;20418;-78
2022/05/24 22:36:23;;;;;;;2.97;2.57;;;12.80;99.90;;;;;;2615601;54;20398;-78
2022/05/24 22:42:29;;;;;;;1.90;1.77;;;12.70;99.90;;;;;;2615544;54;20185;-78
2022/05/24 22:48:36;;;;;;;2.30;2.20;;;12.60;99.90;;;;;;2616914;54;20226;-79
2022/05/24 22:54:43;;;;;;;2.23;2.10;;;12.60;99.90;;;;;;2615412;39;20893;-78
2022/05/24 23:00:49;;;;;;;2.33;2.23;;;12.50;99.90;;;;;;2616057;54;20202;-78
2022/05/24 23:06:55;;;;;;;3.20;2.37;;;12.60;99.90;;;;;;2616229;54;20253;-77
2022/05/24 23:13:02;;;;;;;2.27;2.07;;;12.50;99.90;;;;;;2617160;39;20773;-78
2022/05/24 23:19:10;;;;;;;2.87;2.57;;;12.50;99.90;;;;;;2617374;39;20798;-78
2022/05/24 23:25:16;;;;;;;2.47;2.27;;;12.30;99.90;;;;;;2617478;54;20157;-78
2022/05/24 23:31:23;;;;;;;2.53;2.20;;;12.30;99.90;;;;;;2616507;54;20944;-78
2022/05/24 23:44:44;;;;;;;4.20;2.60;;;12.00;99.90;;;;;;2615810;54;20398;-79
2022/05/24 23:50:50;;;;;;;3.07;2.70;;;11.90;99.90;;;;;;2615766;54;20398;-79
2022/05/24 23:56:57;;;;;;;6.43;2.93;;;11.70;99.90;;;;;;2615407;54;20153;-79
